Monday, December 22, 2014
10:36 UTC
  |  Log In   |  Register Free
Airport Search:

Madison Municipal Airport
(KIMS)

Madison Municipal Airport Diagram
No Airport Diagram Available

FAA data valid effective November 13, 2014 - January 08, 2015 (unless otherwise noted).

 
 
 
 
 
 
 
 
 
 
 
 
 
 

Current Aviation Weather for Madison Municipal Airport (KIMS)

The most recent METAR observation for KIMS was updated at: 2116
METAR Summary (Translated METAR)
KIMS
182053Z AUTO 00000KT 10SM BKN017 OVC065 M01/M06 A3024 RMK AO1
KJVY
030145Z 34005KT 10SM CLR 00/M11 A3027 RMK LAST
(26.9 nm SW from KIMS)
KLOU
182053Z 36003KT 9SM OVC060 01/M05 A3023 RMK AO2 SLP243 T00061050 56009
(33.3 nm SW from KIMS)
TAF
No TAF information found within 50 nm of KLOU
  Airport Weather Conditions for KIMS

Current weather conditions are
not available for IMS


The nearest NOAA weather station
is at LOU, (33.3 nm SW from IMS)
  
 Current Weather at LOU
37° F
Overcast
North winds at 0.0 mph
LOU NOAA Radar

Pressure: 30.00 in
Humidity: 73%
Wind: Calm
Dew Point: 28.9°F
Visibility: 10.00 mi


Airport Weather Forecast for KIMS

Translated METAR and TAF for KLOU
Translated METAR for KLOU (1037 UTC 22 December 2014)
found at http://aviationweather.gov/adds/metars/
 
METAR text: KLOU 220953Z AUTO 00000KT 10SM FEW041 OVC050 03/M02 A3000 RMK AO2 SLP161 T00281017
Conditions at: KLOU (LOUISVILLE/BOWMN, KY, US) observed 0953 UTC 22 December 2014
Temperature: 2.8°C (37°F)
Dewpoint: -1.7°C (29°F) [RH = 72%]
Pressure (altimeter): 30.00 inches Hg (1016.0 mb)
[Sea-level pressure: 1016.1 mb]
Winds: calm
Visibility: 10 or more miles (16+ km)
Ceiling: 5000 feet AGL
Clouds: few clouds at 4100 feet AGL
overcast cloud deck at 5000 feet AGL
Weather: automated observation with no human augmentation;
there may or may not be significant weather present at this time
Translated TAF for KLOU

There is no translated TAF available for this airport

Find All Airport Services Find A Hotel Find A Rental Car Find A Golf Course Find A Restaurant $100 Hamburger



FBO's on the Field
FBO Company Facility Photos Services Transportation Aviation Fuel Prices: Prices include tax
Catering Weather Repair Courtesy Rental Type 100LL JetA JetA+ MOGAS 8087
 
City of Madison

This FBO has not yet been rated
FS:Phillips 66
Last Updated: Dec-16
Login to update fuel prices
SS:
Contact City of MadisonMore FBO Information
 
Add another FBO Facility Photos Catering Weather Repair Courtesy Rental Type 100LL JetA JetA+ MOGAS 8087
Services Transportation Aviation Fuel Prices: Prices include tax


model-print
model-print
model-print
model-print